Accedi per prenotare

Caricamento...

Situazione Metar e Taf aeroporto Pisa - Effemeridi Aeroporto Lucca

[Source: ADDS]
METAR
LIRP 200115Z 25011KT 9999 SCT025 BKN070 13/11 Q1006 NOSIG =
LIRP 192300Z 2000/2024 25010KT 9999 FEW015 BKN035 TEMPO 2000/2003 5000 TSRA FEW015CB BKN020 PROB40 TEMPO 2000/2006 3000 RA BR BECMG 2002/2004 VRB05KT
TAF
LIRP 192300Z 2000/2024 25010KT 9999 FEW015 BKN035 TEMPO 2000/2003 5000 TSRA FEW015CB BKN020 PROB40 TEMPO 2000/2006 3000 RA BR BECMG 2002/2004 VRB05KT =
SR / SS: 03:52 / 18:41 UTC (Effemeridi LIQL 2019-05-20)